John_paul K — PBHY — position and weather

sailwx.info

Track history (hours):
 
Tides and Currents Weather Stations Pressure Air Temp Water Temp Dewpoint Dewpoint Depression Visibility Wind Speed Wind Dir Waves Ship Positions

John_paul K

Last reported at 2014-Dec-19 18:33 UTC. Time now 2014-Dec-20 15:09 UTC.
Position N 38°47' W 009°50'.

Length 90 m; draft 4.3 m.

Type: Cargo ship. MMSI: 245181000.

Date/timePositionNaut miles runAvg speedWind from/ knotsBaromVisibWave heightAir tempDewpointWater temp
2014-Dec-19 18:33N 38°47' W 009°50'1010.2
2014-Dec-19 17:33N 38°37' W 009°48'1110.0
2014-Dec-19 16:25N 38°26' W 009°45'3010.0
2014-Dec-19 13:28N 37°57' W 009°36'1010.1
2014-Dec-19 12:28N 37°47' W 009°34'22310.0
2014-Dec-18 14:11N 35°59' W 005°31'5 8.6
2014-Dec-18 13:33N 35°59' W 005°24'7 6.7
2014-Dec-18 12:34N 35°54' W 005°18'0 0.0
2014-Dec-18 11:32N 35°54' W 005°18'0 0.0
2014-Dec-18 10:32N 35°54' W 005°18'1 1.0
2014-Dec-18 09:33N 35°55' W 005°18'7 7.4
2014-Dec-18 08:33N 36°02' W 005°15'22210.9
2014-Dec-17 12:04N 37°27' W 000°59'611.2
2014-Dec-17 11:33N 37°33' W 001°00'2 1.6
2014-Dec-17 10:32N 37°34' W 000°60'0 0.0
2014-Dec-17 09:11N 37°34' W 000°60'0 0.0
2014-Dec-17 08:14N 37°34' W 000°60'0 0.0
2014-Dec-17 07:26N 37°34' W 000°60'0 0.0
2014-Dec-17 06:32N 37°34' W 000°60'0 0.0
2014-Dec-17 05:14N 37°34' W 000°60'0 0.0
2014-Dec-17 04:32N 37°34' W 000°60'0 0.0
2014-Dec-17 03:32N 37°34' W 000°60'0 0.0
2014-Dec-17 02:32N 37°34' W 000°60'0 0.0
2014-Dec-17 01:32N 37°34' W 000°60'0 0.0
2014-Dec-17 00:32N 37°34' W 000°60'0 0.0
2014-Dec-16 23:32N 37°35' W 000°60'0 0.0
2014-Dec-16 22:32N 37°35' W 000°60'0 0.0
2014-Dec-16 21:32N 37°35' W 000°60'0 0.0
2014-Dec-16 20:32N 37°35' W 000°60'0 0.0
2014-Dec-16 19:32N 37°35' W 000°60'0 0.0
2014-Dec-16 18:32N 37°35' W 000°60'2 2.1
2014-Dec-16 17:33N 37°34' W 000°57'0 0.0
2014-Dec-16 16:32N 37°34' W 000°57'0 0.0
2014-Dec-16 15:32N 37°34' W 000°57'0 0.0
2014-Dec-16 13:17N 37°34' W 000°57'0 0.0
2014-Dec-16 12:32N 37°34' W 000°57'0 0.0
2014-Dec-16 11:32N 37°34' W 000°57'0 0.0
2014-Dec-16 10:32N 37°34' W 000°57'0 0.0
2014-Dec-16 09:32N 37°34' W 000°57'0 0.0
2014-Dec-16 08:32N 37°34' W 000°57'0 0.0
2014-Dec-16 07:32N 37°34' W 000°57'0 0.0
2014-Dec-16 06:32N 37°34' W 000°57'0 0.0
2014-Dec-16 05:20N 37°34' W 000°57'0 0.0
2014-Dec-16 04:23N 37°34' W 000°57'0 0.0
2014-Dec-16 03:32N 37°34' W 000°57'0 0.0
2014-Dec-16 02:32N 37°34' W 000°57'0 0.0
2014-Dec-16 01:05N 37°34' W 000°57'0 0.0
2014-Dec-15 23:32N 37°34' W 000°57'0 0.0
2014-Dec-15 22:32N 37°34' W 000°57'0 0.0
2014-Dec-15 21:32N 37°34' W 000°57'0 0.0
2014-Dec-15 20:32N 37°34' W 000°57'0 0.0
2014-Dec-15 19:32N 37°34' W 000°57'0 0.0
2014-Dec-15 18:32N 37°34' W 000°57'0 0.0
2014-Dec-15 17:32N 37°34' W 000°57'0 0.0
2014-Dec-15 16:32N 37°34' W 000°57'0 0.0
2014-Dec-15 08:27N 37°34' W 000°57'5 5.6
2014-Dec-15 07:33N 37°31' W 001°02'10 8.7
2014-Dec-15 06:22N 37°23' W 001°10'214 9.7
2014-Dec-14 08:14N 35°59' W 005°16'912.8
2014-Dec-14 07:33N 35°58' W 005°26'264 9.3
2014-Dec-13 03:06N 38°26' W 010°00'6 9.8
2014-Dec-13 02:30N 38°31' W 010°02'10 9.7
2014-Dec-13 01:29N 38°41' W 010°05'2010.1
2014-Dec-12 23:33N 39°00' W 010°05'  
Track history (hours):
 
Tides and Currents Weather Stations Pressure Air Temp Water Temp Dewpoint Dewpoint Depression Visibility Wind Speed Wind Dir Waves Ship Positions

John_paul K

Last reported at 2014-Dec-19 18:33 UTC. Time now 2014-Dec-20 15:09 UTC.
Position N 38°47' W 009°50'.

Length 90 m; draft 4.3 m.

Type: Cargo ship. MMSI: 245181000.

Date/timePositionNaut miles runAvg speedWind from/ knotsBaromVisibWave heightAir tempDewpointWater temp
2014-Dec-19 18:33N 38°47' W 009°50'1010.2
2014-Dec-19 17:33N 38°37' W 009°48'1110.0
2014-Dec-19 16:25N 38°26' W 009°45'3010.0
2014-Dec-19 13:28N 37°57' W 009°36'1010.1
2014-Dec-19 12:28N 37°47' W 009°34'22310.0
2014-Dec-18 14:11N 35°59' W 005°31'5 8.6
2014-Dec-18 13:33N 35°59' W 005°24'7 6.7
2014-Dec-18 12:34N 35°54' W 005°18'0 0.0
2014-Dec-18 11:32N 35°54' W 005°18'0 0.0
2014-Dec-18 10:32N 35°54' W 005°18'1 1.0
2014-Dec-18 09:33N 35°55' W 005°18'7 7.4
2014-Dec-18 08:33N 36°02' W 005°15'22210.9
2014-Dec-17 12:04N 37°27' W 000°59'611.2
2014-Dec-17 11:33N 37°33' W 001°00'2 1.6
2014-Dec-17 10:32N 37°34' W 000°60'0 0.0
2014-Dec-17 09:11N 37°34' W 000°60'0 0.0
2014-Dec-17 08:14N 37°34' W 000°60'0 0.0
2014-Dec-17 07:26N 37°34' W 000°60'0 0.0
2014-Dec-17 06:32N 37°34' W 000°60'0 0.0
2014-Dec-17 05:14N 37°34' W 000°60'0 0.0
2014-Dec-17 04:32N 37°34' W 000°60'0 0.0
2014-Dec-17 03:32N 37°34' W 000°60'0 0.0
2014-Dec-17 02:32N 37°34' W 000°60'0 0.0
2014-Dec-17 01:32N 37°34' W 000°60'0 0.0
2014-Dec-17 00:32N 37°34' W 000°60'0 0.0
2014-Dec-16 23:32N 37°35' W 000°60'0 0.0
2014-Dec-16 22:32N 37°35' W 000°60'0 0.0
2014-Dec-16 21:32N 37°35' W 000°60'0 0.0
2014-Dec-16 20:32N 37°35' W 000°60'0 0.0
2014-Dec-16 19:32N 37°35' W 000°60'0 0.0
2014-Dec-16 18:32N 37°35' W 000°60'2 2.1
2014-Dec-16 17:33N 37°34' W 000°57'0 0.0
2014-Dec-16 16:32N 37°34' W 000°57'0 0.0
2014-Dec-16 15:32N 37°34' W 000°57'0 0.0
2014-Dec-16 13:17N 37°34' W 000°57'0 0.0
2014-Dec-16 12:32N 37°34' W 000°57'0 0.0
2014-Dec-16 11:32N 37°34' W 000°57'0 0.0
2014-Dec-16 10:32N 37°34' W 000°57'0 0.0
2014-Dec-16 09:32N 37°34' W 000°57'0 0.0
2014-Dec-16 08:32N 37°34' W 000°57'0 0.0
2014-Dec-16 07:32N 37°34' W 000°57'0 0.0
2014-Dec-16 06:32N 37°34' W 000°57'0 0.0
2014-Dec-16 05:20N 37°34' W 000°57'0 0.0
2014-Dec-16 04:23N 37°34' W 000°57'0 0.0
2014-Dec-16 03:32N 37°34' W 000°57'0 0.0
2014-Dec-16 02:32N 37°34' W 000°57'0 0.0
2014-Dec-16 01:05N 37°34' W 000°57'0 0.0
2014-Dec-15 23:32N 37°34' W 000°57'0 0.0
2014-Dec-15 22:32N 37°34' W 000°57'0 0.0
2014-Dec-15 21:32N 37°34' W 000°57'0 0.0
2014-Dec-15 20:32N 37°34' W 000°57'0 0.0
2014-Dec-15 19:32N 37°34' W 000°57'0 0.0
2014-Dec-15 18:32N 37°34' W 000°57'0 0.0
2014-Dec-15 17:32N 37°34' W 000°57'0 0.0
2014-Dec-15 16:32N 37°34' W 000°57'0 0.0
2014-Dec-15 08:27N 37°34' W 000°57'5 5.6
2014-Dec-15 07:33N 37°31' W 001°02'10 8.7
2014-Dec-15 06:22N 37°23' W 001°10'214 9.7
2014-Dec-14 08:14N 35°59' W 005°16'912.8
2014-Dec-14 07:33N 35°58' W 005°26'264 9.3
2014-Dec-13 03:06N 38°26' W 010°00'6 9.8
2014-Dec-13 02:30N 38°31' W 010°02'10 9.7
2014-Dec-13 01:29N 38°41' W 010°05'2010.1
2014-Dec-12 23:33N 39°00' W 010°05'  

Dump ship's entire track history